Time,TemperatureF,DewpointF,PressureIn,WindDirection,WindDirectionDegrees,WindSpeedMPH,WindSpeedGustMPH,Humidity,HourlyPrecipIn,Conditions,Clouds,dailyrainin,SoftwareType,DateUTC
2013-01-29 00:01:00,49.0,49.0,30.21,SW,225,6.9,6.9,100,0.00,RA,SKC,0.00,WeatherDisplay:10.37,2013-01-29 05:01:00,
2013-01-29 00:03:00,49.0,49.0,30.21,WSW,247,5.8,5.8,100,0.00,RA,SKC,0.00,WeatherDisplay:10.37,2013-01-29 05:03:00,
2013-01-29 00:08:00,50.0,50.0,30.21,WSW,247,8.1,8.1,100,0.00,RA,SKC,0.00,WeatherDisplay:10.37,2013-01-29 05:08:00,
2013-01-29 00:13:00,50.0,50.0,30.21,WSW,247,8.1,8.1,100,0.00,CLR,SKC,0.00,WeatherDisplay:10.37,2013-01-29 05:13:00,
2013-01-29 00:18:00,50.0,50.0,30.21,WSW,247,7.0,7.0,100,0.00,CLR,SKC,0.00,WeatherDisplay:10.37,2013-01-29 05:18:00,
2013-01-29 00:23:00,49.0,49.0,30.21,WSW,247,9.0,9.0,100,0.00,CLR,SKC,0.00,WeatherDisplay:10.37,2013-01-29 05:23:00,
2013-01-29 00:28:00,50.0,50.0,30.21,WSW,247,10.4,10.4,100,0.00,CLR,SKC,0.00,WeatherDisplay:10.37,2013-01-29 05:28:00,
2013-01-29 00:33:00,50.0,50.0,30.21,South,180,8.1,8.1,100,0.00,CLR,SKC,0.00,WeatherDisplay:10.37,2013-01-29 05:33:00,
2013-01-29 00:38:00,50.0,50.0,30.20,WSW,247,9.2,9.2,100,0.00,CLR,SKC,0.00,WeatherDisplay:10.37,2013-01-29 05:38:00,
2013-01-29 00:43:00,50.0,50.0,30.20,WSW,247,8.1,8.1,100,0.00,CLR,SKC,0.00,WeatherDisplay:10.37,2013-01-29 05:43:00,
2013-01-29 00:48:00,50.0,50.0,30.20,WSW,247,6.9,6.9,100,0.00,CLR,SKC,0.00,WeatherDisplay:10.37,2013-01-29 05:48:00,
2013-01-29 00:53:00,49.0,49.0,30.20,WSW,247,9.2,9.2,100,0.00,CLR,SKC,0.00,WeatherDisplay:10.37,2013-01-29 05:53:00,
2013-01-29 00:58:00,50.0,50.0,30.20,WSW,247,6.0,6.0,100,0.00,CLR,SKC,0.00,WeatherDisplay:10.37,2013-01-29 05:58:00,
2013-01-29 01:03:00,49.0,49.0,30.20,SW,225,6.9,6.9,100,0.00,CLR,SKC,0.00,WeatherDisplay:10.37,2013-01-29 06:03:00,
2013-01-29 01:08:00,50.0,50.0,30.19,West,270,6.9,6.9,100,0.00,CLR,SKC,0.00,WeatherDisplay:10.37,2013-01-29 06:08:00,
2013-01-29 01:13:00,49.0,49.0,30.19,South,180,4.6,4.6,100,0.00,CLR,SKC,0.00,WeatherDisplay:10.37,2013-01-29 06:13:00,
2013-01-29 01:18:00,50.0,50.0,30.19,SW,225,5.8,5.8,100,0.00,CLR,SKC,0.00,WeatherDisplay:10.37,2013-01-29 06:18:00,
2013-01-29 01:23:00,50.0,50.0,30.19,SW,225,8.0,8.0,100,0.00,CLR,SKC,0.00,WeatherDisplay:10.37,2013-01-29 06:23:00,
2013-01-29 01:28:00,50.0,50.0,30.19,WSW,247,8.1,8.1,100,0.00,CLR,SKC,0.00,WeatherDisplay:10.37,2013-01-29 06:28:00,
2013-01-29 01:33:00,50.0,50.0,30.19,WSW,247,7.0,7.0,100,0.00,CLR,SKC,0.00,WeatherDisplay:10.37,2013-01-29 06:33:00,
2013-01-29 01:39:00,50.0,50.0,30.19,WSW,247,5.8,5.8,100,0.00,CLR,SKC,0.00,WeatherDisplay:10.37,2013-01-29 06:39:00,
2013-01-29 01:44:00,50.0,50.0,30.19,WSW,247,6.0,6.0,100,0.00,CLR,SKC,0.00,WeatherDisplay:10.37,2013-01-29 06:44:00,
2013-01-29 01:49:00,50.0,50.0,30.19,WSW,247,6.9,6.9,100,0.00,CLR,SKC,0.00,WeatherDisplay:10.37,2013-01-29 06:49:00,
2013-01-29 01:54:00,50.0,50.0,30.19,West,270,6.9,6.9,100,0.00,CLR,SKC,0.00,WeatherDisplay:10.37,2013-01-29 06:54:00,
2013-01-29 01:59:00,50.0,50.0,30.19,WSW,247,6.9,6.9,100,0.00,CLR,SKC,0.00,WeatherDisplay:10.37,2013-01-29 06:59:00,
2013-01-29 02:04:00,49.0,49.0,30.19,WSW,247,5.8,5.8,100,0.00,CLR,SKC,0.00,WeatherDisplay:10.37,2013-01-29 07:04:00,
2013-01-29 02:09:00,50.0,50.0,30.19,WSW,247,6.0,6.0,100,0.00,CLR,SKC,0.00,WeatherDisplay:10.37,2013-01-29 07:09:00,
2013-01-29 02:14:00,49.0,49.0,30.19,WSW,247,5.8,5.8,100,0.00,CLR,SKC,0.00,WeatherDisplay:10.37,2013-01-29 07:14:00,
2013-01-29 02:19:00,49.0,49.0,30.19,SSW,202,5.8,5.8,100,0.00,CLR,SKC,0.00,WeatherDisplay:10.37,2013-01-29 07:19:00,
2013-01-29 02:24:00,49.0,49.0,30.19,WSW,247,5.8,5.8,100,0.00,CLR,SKC,0.00,WeatherDisplay:10.37,2013-01-29 07:24:00,
2013-01-29 02:29:00,49.0,49.0,30.19,WSW,247,6.9,6.9,100,0.00,CLR,SKC,0.00,WeatherDisplay:10.37,2013-01-29 07:29:00,
2013-01-29 02:34:00,49.0,49.0,30.19,WSW,247,4.6,4.6,100,0.00,CLR,SKC,0.00,WeatherDisplay:10.37,2013-01-29 07:34:00,
2013-01-29 02:39:00,49.0,49.0,30.20,WSW,247,4.6,4.6,100,0.00,CLR,SKC,0.00,WeatherDisplay:10.37,2013-01-29 07:39:00,
2013-01-29 02:44:00,49.0,49.0,30.20,SSW,202,4.6,4.6,100,0.00,CLR,SKC,0.00,WeatherDisplay:10.37,2013-01-29 07:44:00,
2013-01-29 02:49:00,49.0,49.0,30.20,WSW,247,6.0,6.0,100,0.00,CLR,SKC,0.00,WeatherDisplay:10.37,2013-01-29 07:49:00,
2013-01-29 02:54:00,49.0,49.0,30.20,WSW,247,5.8,5.8,100,0.00,CLR,SKC,0.00,WeatherDisplay:10.37,2013-01-29 07:54:00,
2013-01-29 02:59:00,49.0,49.0,30.20,SW,225,5.8,5.8,100,0.00,CLR,SKC,0.00,WeatherDisplay:10.37,2013-01-29 07:59:00,
2013-01-29 03:04:00,49.0,49.0,30.20,WSW,247,4.6,4.6,100,0.00,CLR,SKC,0.00,WeatherDisplay:10.37,2013-01-29 08:04:00,
2013-01-29 03:09:00,49.0,49.0,30.19,WSW,247,5.8,5.8,100,0.00,CLR,SKC,0.00,WeatherDisplay:10.37,2013-01-29 08:09:00,
2013-01-29 03:14:00,49.0,49.0,30.19,WSW,247,5.8,5.8,100,0.00,CLR,SKC,0.00,WeatherDisplay:10.37,2013-01-29 08:14:00,
2013-01-29 03:19:00,49.0,49.0,30.19,WSW,247,3.5,3.5,100,0.00,CLR,SKC,0.00,WeatherDisplay:10.37,2013-01-29 08:19:00,
2013-01-29 03:24:00,49.0,49.0,30.19,WSW,247,5.0,5.0,100,0.00,CLR,SKC,0.00,WeatherDisplay:10.37,2013-01-29 08:24:00,
2013-01-29 03:29:00,49.0,49.0,30.19,WSW,247,5.8,5.8,100,0.00,CLR,SKC,0.00,WeatherDisplay:10.37,2013-01-29 08:29:00,
2013-01-29 03:34:00,49.0,49.0,30.19,WSW,247,6.9,6.9,100,0.00,CLR,SKC,0.00,WeatherDisplay:10.37,2013-01-29 08:34:00,
2013-01-29 03:39:00,49.0,49.0,30.18,WSW,247,5.8,5.8,100,0.00,CLR,SKC,0.00,WeatherDisplay:10.37,2013-01-29 08:39:00,
2013-01-29 03:44:00,49.0,49.0,30.18,WSW,247,4.0,4.0,100,0.00,CLR,SKC,0.00,WeatherDisplay:10.37,2013-01-29 08:44:00,
2013-01-29 03:49:00,49.0,49.0,30.18,WSW,247,5.8,5.8,100,0.00,CLR,SKC,0.00,WeatherDisplay:10.37,2013-01-29 08:49:00,
2013-01-29 03:54:00,49.0,49.0,30.18,SW,225,3.5,3.5,100,0.00,CLR,SKC,0.00,WeatherDisplay:10.37,2013-01-29 08:54:00,
2013-01-29 03:59:00,48.0,48.0,30.18,SW,225,3.5,3.5,100,0.00,CLR,SKC,0.00,WeatherDisplay:10.37,2013-01-29 08:59:00,
2013-01-29 04:04:00,48.0,48.0,30.18,SW,225,3.5,3.5,100,0.00,CLR,SKC,0.00,WeatherDisplay:10.37,2013-01-29 09:04:00,
2013-01-29 04:09:00,49.0,49.0,30.18,WSW,247,3.5,3.5,100,0.00,CLR,SKC,0.00,WeatherDisplay:10.37,2013-01-29 09:09:00,
2013-01-29 04:14:00,48.0,48.0,30.18,SW,225,4.0,4.0,100,0.00,CLR,SKC,0.00,WeatherDisplay:10.37,2013-01-29 09:14:00,
2013-01-29 04:19:00,49.0,49.0,30.18,WSW,247,4.6,4.6,100,0.00,CLR,SKC,0.00,WeatherDisplay:10.37,2013-01-29 09:19:00,
2013-01-29 04:24:00,48.0,48.0,30.18,WSW,247,4.6,4.6,100,0.00,CLR,SKC,0.00,WeatherDisplay:10.37,2013-01-29 09:24:00,
2013-01-29 04:29:00,49.0,49.0,30.18,WSW,247,3.5,3.5,100,0.00,CLR,SKC,0.00,WeatherDisplay:10.37,2013-01-29 09:29:00,
2013-01-29 04:34:00,48.0,48.0,30.18,WSW,247,3.5,3.5,100,0.00,CLR,SKC,0.00,WeatherDisplay:10.37,2013-01-29 09:34:00,
2013-01-29 04:39:00,49.0,49.0,30.18,SSW,202,3.5,3.5,100,0.00,CLR,SKC,0.00,WeatherDisplay:10.37,2013-01-29 09:39:00,
2013-01-29 04:44:00,48.0,48.0,30.18,SW,225,3.5,3.5,100,0.00,CLR,SKC,0.00,WeatherDisplay:10.37,2013-01-29 09:44:00,
2013-01-29 04:49:00,49.0,49.0,30.18,SW,225,5.8,5.8,100,0.00,CLR,SKC,0.00,WeatherDisplay:10.37,2013-01-29 09:49:00,
2013-01-29 04:54:00,48.0,48.0,30.18,SW,225,4.6,4.6,100,0.00,CLR,SKC,0.00,WeatherDisplay:10.37,2013-01-29 09:54:00,
2013-01-29 04:59:00,48.0,48.0,30.17,SSW,202,4.6,4.6,100,0.00,CLR,SKC,0.00,WeatherDisplay:10.37,2013-01-29 09:59:00,
2013-01-29 05:04:00,48.0,48.0,30.17,WSW,247,5.8,5.8,100,0.00,CLR,SKC,0.00,WeatherDisplay:10.37,2013-01-29 10:04:00,
2013-01-29 05:09:00,48.0,48.0,30.18,WSW,247,5.0,5.0,100,0.00,CLR,SKC,0.00,WeatherDisplay:10.37,2013-01-29 10:09:00,
2013-01-29 05:14:00,48.0,48.0,30.18,SW,225,4.6,4.6,100,0.00,CLR,SKC,0.00,WeatherDisplay:10.37,2013-01-29 10:14:00,
2013-01-29 05:19:00,48.0,48.0,30.18,WSW,247,5.0,5.0,100,0.00,CLR,SKC,0.00,WeatherDisplay:10.37,2013-01-29 10:19:00,
2013-01-29 05:24:00,48.0,48.0,30.18,SSW,202,4.6,4.6,100,0.00,CLR,SKC,0.00,WeatherDisplay:10.37,2013-01-29 10:24:00,
2013-01-29 05:29:00,48.0,48.0,30.18,SW,225,5.0,5.0,100,0.00,CLR,SKC,0.00,WeatherDisplay:10.37,2013-01-29 10:29:00,
2013-01-29 05:34:00,48.0,48.0,30.18,SW,225,4.6,4.6,100,0.00,CLR,SKC,0.00,WeatherDisplay:10.37,2013-01-29 10:34:00,
2013-01-29 05:39:00,48.0,48.0,30.18,WSW,247,4.0,4.0,100,0.00,CLR,SKC,0.00,WeatherDisplay:10.37,2013-01-29 10:39:00,
2013-01-29 05:44:00,48.0,48.0,30.18,WSW,247,6.0,6.0,100,0.00,CLR,SKC,0.00,WeatherDisplay:10.37,2013-01-29 10:44:00,
2013-01-29 05:49:00,48.0,48.0,30.18,SW,225,5.8,5.8,100,0.00,CLR,SKC,0.00,WeatherDisplay:10.37,2013-01-29 10:49:00,
2013-01-29 05:54:00,48.0,48.0,30.18,SW,225,6.0,6.0,100,0.00,CLR,SKC,0.00,WeatherDisplay:10.37,2013-01-29 10:54:00,
2013-01-29 05:59:00,48.0,48.0,30.18,WSW,247,3.5,3.5,100,0.00,CLR,SKC,0.00,WeatherDisplay:10.37,2013-01-29 10:59:00,
2013-01-29 06:04:00,48.0,48.0,30.18,WSW,247,5.8,5.8,100,0.00,CLR,SKC,0.00,WeatherDisplay:10.37,2013-01-29 11:04:00,
2013-01-29 06:09:00,48.0,48.0,30.18,WSW,247,5.8,5.8,100,0.00,CLR,SKC,0.00,WeatherDisplay:10.37,2013-01-29 11:09:00,
2013-01-29 06:14:00,48.0,48.0,30.18,WSW,247,5.8,5.8,100,0.00,CLR,SKC,0.00,WeatherDisplay:10.37,2013-01-29 11:14:00,
2013-01-29 06:19:00,49.0,49.0,30.19,WSW,247,4.6,4.6,100,0.00,CLR,SKC,0.00,WeatherDisplay:10.37,2013-01-29 11:19:00,
2013-01-29 06:24:00,48.0,48.0,30.19,WSW,247,6.0,6.0,100,0.00,CLR,SKC,0.00,WeatherDisplay:10.37,2013-01-29 11:24:00,
2013-01-29 06:29:00,48.0,48.0,30.18,WSW,247,4.6,4.6,100,0.00,CLR,SKC,0.00,WeatherDisplay:10.37,2013-01-29 11:29:00,
2013-01-29 06:35:00,48.0,48.0,30.18,SW,225,6.0,6.0,100,0.00,CLR,SKC,0.00,WeatherDisplay:10.37,2013-01-29 11:35:00,
2013-01-29 06:40:00,48.0,48.0,30.19,WSW,247,4.6,4.6,100,0.00,CLR,SKC,0.00,WeatherDisplay:10.37,2013-01-29 11:40:00,
2013-01-29 06:45:00,48.0,48.0,30.19,SW,225,4.6,4.6,100,0.00,CLR,SKC,0.00,WeatherDisplay:10.37,2013-01-29 11:45:00,
2013-01-29 06:50:00,49.0,49.0,30.19,WSW,247,5.0,5.0,100,0.00,CLR,SKC,0.00,WeatherDisplay:10.37,2013-01-29 11:50:00,
2013-01-29 06:55:00,49.0,49.0,30.19,SW,225,4.6,4.6,100,0.00,CLR,SKC,0.00,WeatherDisplay:10.37,2013-01-29 11:55:00,
2013-01-29 07:00:00,49.0,49.0,30.19,WSW,247,5.8,5.8,100,0.00,CLR,SKC,0.00,WeatherDisplay:10.37,2013-01-29 12:00:00,
2013-01-29 07:05:00,49.0,49.0,30.19,WSW,247,5.8,5.8,100,0.00,CLR,SKC,0.00,WeatherDisplay:10.37,2013-01-29 12:05:00,
2013-01-29 07:10:00,49.0,49.0,30.19,WSW,247,3.5,4.6,100,0.00,CLR,SKC,0.00,WeatherDisplay:10.37,2013-01-29 12:10:00,
2013-01-29 07:15:00,49.0,49.0,30.19,SW,225,4.6,4.6,100,0.00,CLR,SKC,0.00,WeatherDisplay:10.37,2013-01-29 12:15:00,
2013-01-29 07:20:00,49.0,49.0,30.19,SW,225,4.6,4.6,100,0.00,CLR,SKC,0.00,WeatherDisplay:10.37,2013-01-29 12:20:00,
2013-01-29 07:25:00,48.0,48.0,30.19,SW,225,4.6,4.6,100,0.00,CLR,SKC,0.00,WeatherDisplay:10.37,2013-01-29 12:25:00,
2013-01-29 07:30:00,48.0,48.0,30.19,WSW,247,5.0,5.0,100,0.00,CLR,SKC,0.00,WeatherDisplay:10.37,2013-01-29 12:30:00,
2013-01-29 07:35:00,48.0,48.0,30.19,WSW,247,4.0,4.0,100,0.00,CLR,SKC,0.00,WeatherDisplay:10.37,2013-01-29 12:35:00,
2013-01-29 07:40:00,48.0,48.0,30.20,WSW,247,3.5,3.5,100,0.00,CLR,SKC,0.00,WeatherDisplay:10.37,2013-01-29 12:40:00,
2013-01-29 07:45:00,48.0,48.0,30.20,SW,225,3.5,3.5,100,0.00,CLR,SKC,0.00,WeatherDisplay:10.37,2013-01-29 12:45:00,
2013-01-29 07:50:00,48.0,48.0,30.20,SW,225,3.5,3.5,100,0.00,CLR,SKC,0.00,WeatherDisplay:10.37,2013-01-29 12:50:00,
2013-01-29 07:55:00,48.0,48.0,30.20,SW,225,3.5,3.5,100,0.00,CLR,SKC,0.00,WeatherDisplay:10.37,2013-01-29 12:55:00,
2013-01-29 08:00:00,48.0,48.0,30.20,SW,225,4.6,4.6,100,0.00,CLR,SKC,0.00,WeatherDisplay:10.37,2013-01-29 13:00:00,
2013-01-29 08:05:00,48.0,48.0,30.20,SW,225,3.5,3.5,100,0.00,CLR,SKC,0.00,WeatherDisplay:10.37,2013-01-29 13:05:00,
2013-01-29 08:10:00,48.0,48.0,30.20,SW,225,5.0,5.0,100,0.00,CLR,SKC,0.00,WeatherDisplay:10.37,2013-01-29 13:10:00,
2013-01-29 08:15:00,49.0,49.0,30.20,WSW,247,4.6,4.6,100,0.00,CLR,SKC,0.00,WeatherDisplay:10.37,2013-01-29 13:15:00,
2013-01-29 08:20:00,49.0,49.0,30.19,WSW,247,4.6,4.6,100,0.00,CLR,SKC,0.00,WeatherDisplay:10.37,2013-01-29 13:20:00,
2013-01-29 08:25:00,50.0,50.0,30.19,WSW,247,6.0,6.0,100,0.00,CLR,SKC,0.00,WeatherDisplay:10.37,2013-01-29 13:25:00,
2013-01-29 08:30:00,50.0,50.0,30.18,WSW,247,4.6,4.6,100,0.00,CLR,SKC,0.00,WeatherDisplay:10.37,2013-01-29 13:30:00,
2013-01-29 08:35:00,51.0,51.0,30.18,WSW,247,5.8,5.8,100,0.00,CLR,SKC,0.00,WeatherDisplay:10.37,2013-01-29 13:35:00,
2013-01-29 08:40:00,51.0,51.0,30.17,West,270,6.9,6.9,100,0.00,CLR,SKC,0.00,WeatherDisplay:10.37,2013-01-29 13:40:00,
2013-01-29 08:45:00,51.0,51.0,30.17,WSW,247,4.6,4.6,100,0.00,CLR,SKC,0.00,WeatherDisplay:10.37,2013-01-29 13:45:00,
2013-01-29 08:50:00,51.0,51.0,30.17,WSW,247,5.8,5.8,100,0.00,CLR,SKC,0.00,WeatherDisplay:10.37,2013-01-29 13:50:00,
2013-01-29 08:55:00,52.0,52.0,30.17,SW,225,8.1,8.1,100,0.00,CLR,SKC,0.00,WeatherDisplay:10.37,2013-01-29 13:55:00,
2013-01-29 09:00:00,53.0,53.0,30.16,West,270,5.8,5.8,100,0.00,CLR,SKC,0.00,WeatherDisplay:10.37,2013-01-29 14:00:00,
2013-01-29 09:05:00,53.0,53.0,30.16,West,270,8.1,8.1,100,0.00,CLR,SKC,0.00,WeatherDisplay:10.37,2013-01-29 14:05:00,
2013-01-29 09:10:00,54.0,54.0,30.15,WSW,247,5.8,5.8,100,0.00,CLR,SKC,0.00,WeatherDisplay:10.37,2013-01-29 14:10:00,
2013-01-29 09:15:00,54.0,53.4,30.15,WSW,247,6.9,6.9,98,0.00,CLR,SKC,0.00,WeatherDisplay:10.37,2013-01-29 14:15:00,
2013-01-29 09:20:00,54.0,52.9,30.15,SW,225,6.9,6.9,96,0.00,CLR,SKC,0.00,WeatherDisplay:10.37,2013-01-29 14:20:00,
2013-01-29 09:25:00,55.0,53.6,30.15,West,270,6.0,6.0,95,0.00,CLR,SKC,0.00,WeatherDisplay:10.37,2013-01-29 14:25:00,
2013-01-29 09:30:00,55.0,53.0,30.14,West,270,5.8,5.8,93,0.00,CLR,SKC,0.00,WeatherDisplay:10.37,2013-01-29 14:30:00,
2013-01-29 09:35:00,56.0,53.4,30.14,WSW,247,10.4,10.4,91,0.00,CLR,SKC,0.00,WeatherDisplay:10.37,2013-01-29 14:35:00,
2013-01-29 09:40:00,56.0,53.4,30.14,WSW,247,8.1,8.1,91,0.00,CLR,SKC,0.00,WeatherDisplay:10.37,2013-01-29 14:40:00,
2013-01-29 09:45:00,56.0,52.8,30.14,West,270,6.9,6.9,89,0.00,CLR,SKC,0.00,WeatherDisplay:10.37,2013-01-29 14:45:00,
2013-01-29 09:50:00,57.0,53.5,30.13,SW,225,8.1,8.1,88,0.00,CLR,SKC,0.00,WeatherDisplay:10.37,2013-01-29 14:50:00,
2013-01-29 09:55:00,57.0,53.2,30.13,WSW,247,6.9,6.9,87,0.00,CLR,SKC,0.00,WeatherDisplay:10.37,2013-01-29 14:55:00,
2013-01-29 10:00:00,57.0,52.5,30.13,WSW,247,10.4,10.4,85,0.00,CLR,SKC,0.00,WeatherDisplay:10.37,2013-01-29 15:00:00,
2013-01-29 10:05:00,58.0,53.2,30.13,SSW,202,6.9,6.9,84,0.00,CLR,SKC,0.00,WeatherDisplay:10.37,2013-01-29 15:05:00,
2013-01-29 10:10:00,58.0,52.9,30.13,WSW,247,8.1,8.1,83,0.00,CLR,SKC,0.00,WeatherDisplay:10.37,2013-01-29 15:10:00,
2013-01-29 10:15:00,59.0,54.2,30.13,West,270,5.8,5.8,84,0.00,CLR,SKC,0.00,WeatherDisplay:10.37,2013-01-29 15:15:00,
2013-01-29 10:20:00,59.0,53.8,30.13,West,270,6.9,6.9,83,0.00,CLR,SKC,0.00,WeatherDisplay:10.37,2013-01-29 15:20:00,
2013-01-29 10:25:00,59.0,53.2,30.13,WSW,247,7.0,7.0,81,0.00,CLR,SKC,0.00,WeatherDisplay:10.37,2013-01-29 15:25:00,
2013-01-29 10:30:00,60.0,53.8,30.13,WSW,247,8.1,8.1,80,0.00,CLR,SKC,0.00,WeatherDisplay:10.37,2013-01-29 15:30:00,
2013-01-29 10:35:00,60.0,53.8,30.13,SW,225,4.6,4.9,80,0.00,CLR,SKC,0.00,WeatherDisplay:10.37,2013-01-29 15:35:00,
2013-01-29 10:40:00,60.0,53.1,30.13,WSW,247,11.5,11.5,78,0.00,CLR,SKC,0.00,WeatherDisplay:10.37,2013-01-29 15:40:00,
2013-01-29 10:45:00,60.0,53.1,30.13,SW,225,10.4,10.4,78,0.00,CLR,SKC,0.00,WeatherDisplay:10.37,2013-01-29 15:45:00,
2013-01-29 10:51:00,60.0,53.1,30.13,WSW,247,10.4,10.4,78,0.00,CLR,SKC,0.00,WeatherDisplay:10.37,2013-01-29 15:51:00,
2013-01-29 10:56:00,61.0,54.1,30.13,West,270,9.2,9.2,78,0.00,CLR,SKC,0.00,WeatherDisplay:10.37,2013-01-29 15:56:00,
2013-01-29 11:01:00,61.0,53.7,30.13,West,270,10.4,10.4,77,0.00,CLR,SKC,0.00,WeatherDisplay:10.37,2013-01-29 16:01:00,
2013-01-29 11:06:00,61.0,53.7,30.13,WSW,247,10.4,10.4,77,0.00,CLR,SKC,0.00,WeatherDisplay:10.37,2013-01-29 16:06:00,
2013-01-29 11:11:00,62.0,54.0,30.12,WSW,247,9.2,9.2,75,0.00,CLR,SKC,0.00,WeatherDisplay:10.37,2013-01-29 16:11:00,
2013-01-29 11:16:00,62.0,54.0,30.12,WSW,247,8.1,8.1,75,0.00,CLR,SKC,0.00,WeatherDisplay:10.37,2013-01-29 16:16:00,
2013-01-29 11:21:00,62.0,54.0,30.11,SW,225,8.1,8.1,75,0.00,CLR,SKC,0.00,WeatherDisplay:10.37,2013-01-29 16:21:00,
2013-01-29 11:26:00,63.0,54.6,30.11,WSW,247,6.9,6.9,74,0.00,CLR,SKC,0.00,WeatherDisplay:10.37,2013-01-29 16:26:00,
2013-01-29 11:31:00,64.0,54.8,30.11,SW,225,7.0,7.0,72,0.00,CLR,SKC,0.00,WeatherDisplay:10.37,2013-01-29 16:31:00,
2013-01-29 11:36:00,63.0,54.6,30.11,West,270,9.2,9.2,74,0.00,CLR,SKC,0.00,WeatherDisplay:10.37,2013-01-29 16:36:00,
2013-01-29 11:41:00,64.0,55.2,30.09,WSW,247,9.2,9.2,73,0.00,CLR,SKC,0.00,WeatherDisplay:10.37,2013-01-29 16:41:00,
2013-01-29 11:46:00,64.0,54.8,30.09,WSW,247,9.0,9.0,72,0.00,CLR,SKC,0.00,WeatherDisplay:10.37,2013-01-29 16:46:00,
2013-01-29 11:51:00,65.0,55.4,30.09,WSW,247,6.9,6.9,71,0.00,CLR,SKC,0.00,WeatherDisplay:10.37,2013-01-29 16:51:00,
2013-01-29 11:56:00,65.0,55.0,30.09,WSW,247,9.2,9.2,70,0.00,CLR,SKC,0.00,WeatherDisplay:10.37,2013-01-29 16:56:00,
2013-01-29 12:01:00,65.0,55.0,30.08,WSW,247,9.0,9.0,70,0.00,CLR,SKC,0.00,WeatherDisplay:10.37,2013-01-29 17:01:00,
2013-01-29 12:06:00,65.0,55.4,30.08,WSW,247,6.9,6.9,71,0.00,CLR,SKC,0.00,WeatherDisplay:10.37,2013-01-29 17:06:00,
2013-01-29 12:11:00,66.0,55.9,30.07,WSW,247,5.8,5.8,70,0.00,CLR,SKC,0.00,WeatherDisplay:10.37,2013-01-29 17:11:00,
2013-01-29 12:16:00,66.0,55.1,30.07,West,270,10.4,10.4,68,0.00,CLR,SKC,0.00,WeatherDisplay:10.37,2013-01-29 17:16:00,
2013-01-29 12:21:00,65.0,55.0,30.07,West,270,9.2,9.2,70,0.00,CLR,SKC,0.00,WeatherDisplay:10.37,2013-01-29 17:21:00,
2013-01-29 12:26:00,65.0,55.0,30.07,West,270,8.1,8.1,70,0.00,CLR,SKC,0.00,WeatherDisplay:10.37,2013-01-29 17:26:00,
2013-01-29 12:31:00,66.0,55.5,30.06,South,180,3.5,3.5,69,0.00,CLR,SKC,0.00,WeatherDisplay:10.37,2013-01-29 17:31:00,
2013-01-29 12:36:00,67.0,55.7,30.06,SW,225,4.6,4.6,67,0.00,CLR,SKC,0.00,WeatherDisplay:10.37,2013-01-29 17:36:00,
2013-01-29 12:41:00,68.0,56.6,30.04,WSW,247,5.8,5.8,67,0.00,CLR,SKC,0.00,WeatherDisplay:10.37,2013-01-29 17:41:00,
2013-01-29 12:46:00,67.0,55.7,30.04,West,270,5.8,5.8,67,0.00,CLR,SKC,0.00,WeatherDisplay:10.37,2013-01-29 17:46:00,
2013-01-29 12:51:00,67.0,55.7,30.04,SSE,157,7.0,7.0,67,0.00,CLR,SKC,0.00,WeatherDisplay:10.37,2013-01-29 17:51:00,
2013-01-29 12:56:00,68.0,56.2,30.04,SW,225,7.0,7.0,66,0.00,CLR,SKC,0.00,WeatherDisplay:10.37,2013-01-29 17:56:00,
2013-01-29 13:02:00,68.0,56.6,30.03,West,270,6.9,6.9,67,0.00,CLR,SKC,0.00,WeatherDisplay:10.37,2013-01-29 18:02:00,
2013-01-29 13:07:00,68.0,56.2,30.03,WSW,247,5.0,5.0,66,0.00,CLR,SKC,0.00,WeatherDisplay:10.37,2013-01-29 18:07:00,
2013-01-29 13:12:00,69.0,57.2,30.02,NNW,337,3.5,3.5,66,0.00,CLR,SKC,0.00,WeatherDisplay:10.37,2013-01-29 18:12:00,
2013-01-29 13:17:00,69.0,56.3,30.02,WSW,247,10.4,10.4,64,0.00,CLR,SKC,0.00,WeatherDisplay:10.37,2013-01-29 18:17:00,
2013-01-29 13:22:00,69.0,57.2,30.01,West,270,6.9,6.9,66,0.00,CLR,SKC,0.00,WeatherDisplay:10.37,2013-01-29 18:22:00,
2013-01-29 13:27:00,69.0,56.7,30.01,WSW,247,6.9,6.9,65,0.00,CLR,SKC,0.00,WeatherDisplay:10.37,2013-01-29 18:27:00,
2013-01-29 13:32:00,69.0,56.7,30.01,WSW,247,8.1,8.1,65,0.00,CLR,SKC,0.00,WeatherDisplay:10.37,2013-01-29 18:32:00,
2013-01-29 13:37:00,68.0,56.2,30.01,West,270,5.8,5.8,66,0.00,CLR,SKC,0.00,WeatherDisplay:10.37,2013-01-29 18:37:00,
2013-01-29 13:42:00,68.0,56.6,30.01,West,270,6.9,6.9,67,0.00,CLR,SKC,0.00,WeatherDisplay:10.37,2013-01-29 18:42:00,
2013-01-29 13:47:00,68.0,56.6,30.01,West,270,5.8,5.8,67,0.00,CLR,SKC,0.00,WeatherDisplay:10.37,2013-01-29 18:47:00,
2013-01-29 13:52:00,68.0,56.6,30.01,WSW,247,5.8,5.8,67,0.00,CLR,SKC,0.00,WeatherDisplay:10.37,2013-01-29 18:52:00,
2013-01-29 13:57:00,68.0,57.0,30.01,West,270,5.8,5.8,68,0.00,CLR,SKC,0.00,WeatherDisplay:10.37,2013-01-29 18:57:00,
2013-01-29 14:02:00,69.0,57.6,30.01,WSW,247,6.0,6.0,67,0.00,CLR,SKC,0.00,WeatherDisplay:10.37,2013-01-29 19:02:00,
2013-01-29 14:07:00,68.0,57.0,30.01,West,270,6.9,6.9,68,0.00,CLR,SKC,0.00,WeatherDisplay:10.37,2013-01-29 19:07:00,
2013-01-29 14:12:00,69.0,58.0,30.01,WSW,247,5.8,5.8,68,0.00,CLR,SKC,0.00,WeatherDisplay:10.37,2013-01-29 19:12:00,
2013-01-29 14:17:00,70.0,58.1,30.01,WSW,247,5.8,5.8,66,0.00,CLR,SKC,0.00,WeatherDisplay:10.37,2013-01-29 19:17:00,
2013-01-29 14:22:00,70.0,58.1,30.00,West,270,6.0,6.0,66,0.00,CLR,SKC,0.00,WeatherDisplay:10.37,2013-01-29 19:22:00,
2013-01-29 14:27:00,69.0,57.6,30.00,WNW,292,6.0,6.0,67,0.00,CLR,SKC,0.00,WeatherDisplay:10.37,2013-01-29 19:27:00,
2013-01-29 14:32:00,70.0,58.1,29.99,South,180,6.9,6.9,66,0.00,CLR,SKC,0.00,WeatherDisplay:10.37,2013-01-29 19:32:00,
2013-01-29 14:37:00,70.0,58.1,29.99,WSW,247,4.6,4.8,66,0.00,CLR,SKC,0.00,WeatherDisplay:10.37,2013-01-29 19:37:00,
2013-01-29 14:42:00,71.0,58.6,29.99,West,270,4.6,4.6,65,0.00,CLR,SKC,0.00,WeatherDisplay:10.37,2013-01-29 19:42:00,
2013-01-29 14:47:00,71.0,58.6,29.99,WSW,247,3.5,3.5,65,0.00,CLR,SKC,0.00,WeatherDisplay:10.37,2013-01-29 19:47:00,
2013-01-29 14:52:00,72.0,58.7,29.99,SW,225,8.1,8.1,63,0.00,CLR,SKC,0.00,WeatherDisplay:10.37,2013-01-29 19:52:00,
2013-01-29 14:57:00,72.0,58.7,29.99,SE,135,9.2,9.2,63,0.00,CLR,SKC,0.00,WeatherDisplay:10.37,2013-01-29 19:57:00,
2013-01-29 15:02:00,72.0,58.7,29.98,SSW,202,9.2,9.2,63,0.00,CLR,SKC,0.00,WeatherDisplay:10.37,2013-01-29 20:02:00,
2013-01-29 15:07:00,72.0,58.7,29.98,SW,225,5.8,5.8,63,0.00,CLR,SKC,0.00,WeatherDisplay:10.37,2013-01-29 20:07:00,
2013-01-29 15:12:00,72.0,58.7,29.98,WNW,292,8.1,8.1,63,0.00,CLR,SKC,0.00,WeatherDisplay:10.37,2013-01-29 20:12:00,
2013-01-29 15:17:00,72.0,58.7,29.98,SW,225,5.8,5.8,63,0.00,CLR,SKC,0.00,WeatherDisplay:10.37,2013-01-29 20:17:00,
2013-01-29 15:22:00,72.0,58.7,29.98,SW,225,5.8,5.8,63,0.00,CLR,SKC,0.00,WeatherDisplay:10.37,2013-01-29 20:22:00,
2013-01-29 15:27:00,71.0,57.8,29.98,West,270,8.1,8.1,63,0.00,CLR,SKC,0.00,WeatherDisplay:10.37,2013-01-29 20:27:00,
2013-01-29 15:32:00,71.0,57.8,29.99,SW,225,5.8,5.8,63,0.00,CLR,SKC,0.00,WeatherDisplay:10.37,2013-01-29 20:32:00,
2013-01-29 15:37:00,71.0,57.8,29.99,SW,225,6.9,6.9,63,0.00,CLR,SKC,0.00,WeatherDisplay:10.37,2013-01-29 20:37:00,
2013-01-29 15:42:00,71.0,57.8,29.99,WSW,247,6.9,6.9,63,0.00,CLR,SKC,0.00,WeatherDisplay:10.37,2013-01-29 20:42:00,
2013-01-29 15:47:00,71.0,57.8,29.99,SSE,157,8.1,8.1,63,0.00,CLR,SKC,0.00,WeatherDisplay:10.37,2013-01-29 20:47:00,
2013-01-29 15:52:00,71.0,57.8,29.99,WSW,247,4.6,4.6,63,0.00,CLR,SKC,0.00,WeatherDisplay:10.37,2013-01-29 20:52:00,
2013-01-29 15:57:00,72.0,58.7,29.99,SW,225,4.6,4.6,63,0.00,CLR,SKC,0.00,WeatherDisplay:10.37,2013-01-29 20:57:00,
2013-01-29 16:03:00,72.0,58.3,29.99,SSW,202,3.5,3.5,62,0.00,CLR,SKC,0.00,WeatherDisplay:10.37,2013-01-29 21:03:00,
2013-01-29 16:08:00,72.0,58.3,29.99,South,180,5.8,5.8,62,0.00,CLR,SKC,0.00,WeatherDisplay:10.37,2013-01-29 21:08:00,
2013-01-29 16:13:00,71.0,57.8,29.99,SSW,202,6.9,6.9,63,0.00,CLR,SKC,0.00,WeatherDisplay:10.37,2013-01-29 21:13:00,
2013-01-29 16:18:00,71.0,57.8,29.99,WSW,247,3.5,3.5,63,0.00,CLR,SKC,0.00,WeatherDisplay:10.37,2013-01-29 21:18:00,
2013-01-29 16:23:00,70.0,57.3,29.99,South,180,3.0,3.0,64,0.00,CLR,SKC,0.00,WeatherDisplay:10.37,2013-01-29 21:23:00,
2013-01-29 16:28:00,70.0,57.7,30.01,SSW,202,4.0,4.0,65,0.00,CLR,SKC,0.00,WeatherDisplay:10.37,2013-01-29 21:28:00,
2013-01-29 16:33:00,70.0,57.7,30.01,ESE,112,3.5,3.5,65,0.00,CLR,SKC,0.00,WeatherDisplay:10.37,2013-01-29 21:33:00,
2013-01-29 16:38:00,70.0,57.7,30.01,SW,225,3.5,3.5,65,0.00,CLR,SKC,0.00,WeatherDisplay:10.37,2013-01-29 21:38:00,
2013-01-29 16:43:00,70.0,58.1,30.01,South,180,2.0,2.0,66,0.00,CLR,SKC,0.00,WeatherDisplay:10.37,2013-01-29 21:43:00,
2013-01-29 16:48:00,70.0,58.1,30.01,South,180,3.5,3.5,66,0.00,CLR,SKC,0.00,WeatherDisplay:10.37,2013-01-29 21:48:00,
2013-01-29 16:53:00,69.0,57.6,30.01,SW,225,3.5,3.5,67,0.00,CLR,SKC,0.00,WeatherDisplay:10.37,2013-01-29 21:53:00,
2013-01-29 16:58:00,69.0,57.6,30.01,South,180,4.6,4.6,67,0.00,CLR,SKC,0.00,WeatherDisplay:10.37,2013-01-29 21:58:00,
2013-01-29 17:03:00,69.0,58.0,30.01,SW,225,8.1,8.1,68,0.00,CLR,SKC,0.00,WeatherDisplay:10.37,2013-01-29 22:03:00,
2013-01-29 17:08:00,69.0,58.0,30.01,SSW,202,4.6,4.6,68,0.00,CLR,SKC,0.00,WeatherDisplay:10.37,2013-01-29 22:08:00,
2013-01-29 17:13:00,68.0,57.4,30.01,WSW,247,4.6,4.6,69,0.00,CLR,SKC,0.00,WeatherDisplay:10.37,2013-01-29 22:13:00,
2013-01-29 17:18:00,68.0,57.4,30.03,SW,225,3.0,3.0,69,0.00,CLR,SKC,0.00,WeatherDisplay:10.37,2013-01-29 22:18:00,
2013-01-29 17:23:00,67.0,56.5,30.03,SW,225,1.1,1.1,69,0.00,CLR,SKC,0.00,WeatherDisplay:10.37,2013-01-29 22:23:00,
2013-01-29 17:28:00,67.0,56.9,30.03,SW,225,3.5,3.5,70,0.00,CLR,SKC,0.00,WeatherDisplay:10.37,2013-01-29 22:28:00,
2013-01-29 17:33:00,66.0,56.3,30.03,SW,225,2.3,2.3,71,0.00,CLR,SKC,0.00,WeatherDisplay:10.37,2013-01-29 22:33:00,
2013-01-29 17:38:00,66.0,56.7,30.03,SW,225,3.5,3.5,72,0.00,CLR,SKC,0.00,WeatherDisplay:10.37,2013-01-29 22:38:00,
2013-01-29 17:43:00,66.0,57.5,30.03,SW,225,2.3,2.3,74,0.00,CLR,SKC,0.00,WeatherDisplay:10.37,2013-01-29 22:43:00,
2013-01-29 17:48:00,66.0,57.5,30.03,SW,225,1.1,1.1,74,0.00,CLR,SKC,0.00,WeatherDisplay:10.37,2013-01-29 22:48:00,
2013-01-29 17:53:00,65.0,57.2,30.03,SW,225,3.5,3.5,76,0.00,CLR,SKC,0.00,WeatherDisplay:10.37,2013-01-29 22:53:00,
2013-01-29 17:58:00,65.0,57.2,30.04,SW,225,2.3,2.3,76,0.00,CLR,SKC,0.00,WeatherDisplay:10.37,2013-01-29 22:58:00,
2013-01-29 18:03:00,64.0,56.6,30.04,SW,225,2.0,2.0,77,0.00,CLR,SKC,0.00,WeatherDisplay:10.37,2013-01-29 23:03:00,
2013-01-29 18:08:00,64.0,56.6,30.04,SW,225,1.1,1.1,77,0.00,CLR,SKC,0.00,WeatherDisplay:10.37,2013-01-29 23:08:00,
2013-01-29 18:13:00,63.0,56.4,30.04,SW,225,0.0,0.0,79,0.00,CLR,SKC,0.00,WeatherDisplay:10.37,2013-01-29 23:13:00,
2013-01-29 18:18:00,63.0,56.4,30.05,SW,225,0.0,0.0,79,0.00,CLR,SKC,0.00,WeatherDisplay:10.37,2013-01-29 23:18:00,
2013-01-29 18:23:00,63.0,56.7,30.05,SW,225,3.5,3.5,80,0.00,CLR,SKC,0.00,WeatherDisplay:10.37,2013-01-29 23:23:00,
2013-01-29 18:29:00,63.0,57.1,30.05,SW,225,3.5,3.5,81,0.00,CLR,SKC,0.00,WeatherDisplay:10.37,2013-01-29 23:29:00,
2013-01-29 18:34:00,62.0,56.4,30.05,SW,225,2.3,0.0,82,0.00,CLR,SKC,0.00,WeatherDisplay:10.37,2013-01-29 23:34:00,
2013-01-29 18:39:00,63.0,57.4,30.05,SSW,202,0.0,0.0,82,0.00,CLR,SKC,0.00,WeatherDisplay:10.37,2013-01-29 23:39:00,
2013-01-29 18:44:00,62.0,56.8,30.05,SSW,202,1.1,1.1,83,0.00,CLR,SKC,0.00,WeatherDisplay:10.37,2013-01-29 23:44:00,
2013-01-29 18:49:00,62.0,57.1,30.04,SSW,202,3.0,3.0,84,0.00,CLR,SKC,0.00,WeatherDisplay:10.37,2013-01-29 23:49:00,
2013-01-29 18:54:00,62.0,57.1,30.04,SSW,202,2.3,2.3,84,0.00,CLR,SKC,0.00,WeatherDisplay:10.37,2013-01-29 23:54:00,
2013-01-29 18:59:00,62.0,57.1,30.05,SSW,202,0.0,0.0,84,0.00,CLR,SKC,0.00,WeatherDisplay:10.37,2013-01-29 23:59:00,
2013-01-29 19:04:00,62.0,57.1,30.05,SSW,202,0.0,0.0,84,0.00,CLR,SKC,0.00,WeatherDisplay:10.37,2013-01-30 00:04:00,
2013-01-29 19:09:00,62.0,57.1,30.05,SSW,202,0.0,0.0,84,0.00,CLR,SKC,0.00,WeatherDisplay:10.37,2013-01-30 00:09:00,
2013-01-29 19:14:00,61.0,56.5,30.05,SSW,202,2.3,2.3,85,0.00,CLR,SKC,0.00,WeatherDisplay:10.37,2013-01-30 00:14:00,
2013-01-29 19:19:00,61.0,57.1,30.05,South,180,3.5,3.5,87,0.00,CLR,SKC,0.00,WeatherDisplay:10.37,2013-01-30 00:19:00,
2013-01-29 19:24:00,61.0,57.4,30.05,South,180,3.5,3.5,88,0.00,CLR,SKC,0.00,WeatherDisplay:10.37,2013-01-30 00:24:00,
2013-01-29 19:29:00,61.0,57.1,30.05,South,180,4.0,4.0,87,0.00,CLR,SKC,0.00,WeatherDisplay:10.37,2013-01-30 00:29:00,
2013-01-29 19:34:00,61.0,57.1,30.05,South,180,4.0,4.0,87,0.00,CLR,SKC,0.00,WeatherDisplay:10.37,2013-01-30 00:34:00,
2013-01-29 19:39:00,61.0,57.1,30.05,South,180,3.5,3.5,87,0.00,CLR,SKC,0.00,WeatherDisplay:10.37,2013-01-30 00:39:00,
2013-01-29 19:44:00,61.0,57.1,30.05,South,180,3.5,3.5,87,0.00,CLR,SKC,0.00,WeatherDisplay:10.37,2013-01-30 00:44:00,
2013-01-29 19:49:00,61.0,57.1,30.05,South,180,4.0,4.0,87,0.00,CLR,SKC,0.00,WeatherDisplay:10.37,2013-01-30 00:49:00,
2013-01-29 19:54:00,61.0,57.7,30.05,South,180,5.8,5.8,89,0.00,CLR,SKC,0.00,WeatherDisplay:10.37,2013-01-30 00:54:00,
2013-01-29 19:59:00,61.0,57.1,30.04,SSE,157,5.8,5.8,87,0.00,CLR,SKC,0.00,WeatherDisplay:10.37,2013-01-30 00:59:00,
2013-01-29 20:04:00,61.0,57.4,30.04,SSE,157,5.8,5.8,88,0.00,CLR,SKC,0.00,WeatherDisplay:10.37,2013-01-30 01:04:00,
2013-01-29 20:09:00,61.0,57.1,30.04,SSE,157,10.4,10.4,87,0.00,CLR,SKC,0.00,WeatherDisplay:10.37,2013-01-30 01:09:00,
2013-01-29 20:14:00,61.0,57.1,30.04,SSE,157,9.2,9.2,87,0.00,CLR,SKC,0.00,WeatherDisplay:10.37,2013-01-30 01:14:00,
2013-01-29 20:19:00,62.0,57.4,30.04,SSW,202,3.5,3.5,85,0.00,CLR,SKC,0.00,WeatherDisplay:10.37,2013-01-30 01:19:00,
2013-01-29 20:24:00,61.0,57.1,30.04,South,180,5.8,5.8,87,0.00,CLR,SKC,0.00,WeatherDisplay:10.37,2013-01-30 01:24:00,
2013-01-29 20:29:00,61.0,57.1,30.05,SSW,202,6.9,6.9,87,0.00,CLR,SKC,0.00,WeatherDisplay:10.37,2013-01-30 01:29:00,
2013-01-29 20:34:00,61.0,57.1,30.05,SSW,202,6.9,6.9,87,0.00,CLR,SKC,0.00,WeatherDisplay:10.37,2013-01-30 01:34:00,
2013-01-29 20:39:00,61.0,57.1,30.04,SSW,202,9.0,9.0,87,0.00,CLR,SKC,0.00,WeatherDisplay:10.37,2013-01-30 01:39:00,
2013-01-29 20:44:00,61.0,57.1,30.04,South,180,6.0,6.0,87,0.00,CLR,SKC,0.00,WeatherDisplay:10.37,2013-01-30 01:44:00,
2013-01-29 20:49:00,62.0,58.1,30.05,SSW,202,5.0,5.0,87,0.00,CLR,SKC,0.00,WeatherDisplay:10.37,2013-01-30 01:49:00,
2013-01-29 20:54:00,61.0,57.4,30.05,SSW,202,9.2,9.2,88,0.00,CLR,SKC,0.00,WeatherDisplay:10.37,2013-01-30 01:54:00,
2013-01-29 20:59:00,62.0,58.1,30.05,SSW,202,6.0,6.0,87,0.00,CLR,SKC,0.00,WeatherDisplay:10.37,2013-01-30 01:59:00,
2013-01-29 21:04:00,61.0,57.7,30.05,SSW,202,5.8,5.8,89,0.00,CLR,SKC,0.00,WeatherDisplay:10.37,2013-01-30 02:04:00,
2013-01-29 21:09:00,62.0,58.7,30.05,WSW,247,7.0,7.0,89,0.00,CLR,SKC,0.00,WeatherDisplay:10.37,2013-01-30 02:09:00,
2013-01-29 21:14:00,61.0,57.7,30.05,South,180,8.1,8.1,89,0.00,CLR,SKC,0.00,WeatherDisplay:10.37,2013-01-30 02:14:00,
2013-01-29 21:19:00,62.0,58.7,30.05,SW,225,10.4,10.4,89,0.00,CLR,SKC,0.00,WeatherDisplay:10.37,2013-01-30 02:19:00,
2013-01-29 21:24:00,61.0,57.7,30.05,SSW,202,5.8,5.8,89,0.00,CLR,SKC,0.00,WeatherDisplay:10.37,2013-01-30 02:24:00,
2013-01-29 21:29:00,62.0,58.7,30.04,South,180,5.8,5.8,89,0.00,CLR,SKC,0.00,WeatherDisplay:10.37,2013-01-30 02:29:00,
2013-01-29 21:34:00,61.0,58.0,30.04,South,180,6.9,6.9,90,0.00,CLR,SKC,0.00,WeatherDisplay:10.37,2013-01-30 02:34:00,
2013-01-29 21:39:00,62.0,59.0,30.04,SSW,202,4.6,4.6,90,0.00,CLR,SKC,0.00,WeatherDisplay:10.37,2013-01-30 02:39:00,
2013-01-29 21:44:00,61.0,58.0,30.04,SSW,202,4.0,4.0,90,0.00,CLR,SKC,0.00,WeatherDisplay:10.37,2013-01-30 02:44:00,
2013-01-29 21:49:00,61.0,58.0,30.05,SSW,202,4.6,4.6,90,0.00,CLR,SKC,0.00,WeatherDisplay:10.37,2013-01-30 02:49:00,
2013-01-29 21:54:00,61.0,58.7,30.05,SSW,202,6.9,6.9,92,0.00,CLR,SKC,0.00,WeatherDisplay:10.37,2013-01-30 02:54:00,
2013-01-29 21:59:00,61.0,58.7,30.05,SSW,202,3.5,3.5,92,0.00,CLR,SKC,0.00,WeatherDisplay:10.37,2013-01-30 02:59:00,
2013-01-29 22:04:00,61.0,59.0,30.05,South,180,4.0,4.0,93,0.00,CLR,SKC,0.00,WeatherDisplay:10.37,2013-01-30 03:04:00,
2013-01-29 22:09:00,61.0,59.3,30.05,South,180,5.8,5.8,94,0.00,CLR,SKC,0.00,WeatherDisplay:10.37,2013-01-30 03:09:00,
2013-01-29 22:14:00,60.0,58.6,30.05,South,180,6.9,6.9,95,0.00,CLR,SKC,0.00,WeatherDisplay:10.37,2013-01-30 03:14:00,
2013-01-29 22:19:00,61.0,59.3,30.05,SW,225,5.8,5.8,94,0.00,CLR,SKC,0.00,WeatherDisplay:10.37,2013-01-30 03:19:00,
2013-01-29 22:24:00,60.0,58.6,30.05,South,180,4.0,4.0,95,0.00,CLR,SKC,0.00,WeatherDisplay:10.37,2013-01-30 03:24:00,
2013-01-29 22:29:00,61.0,59.3,30.05,South,180,5.0,5.0,94,0.00,CLR,SKC,0.00,WeatherDisplay:10.37,2013-01-30 03:29:00,
2013-01-29 22:34:00,60.0,58.9,30.05,South,180,3.5,3.7,96,0.00,CLR,SKC,0.00,WeatherDisplay:10.37,2013-01-30 03:34:00,
2013-01-29 22:39:00,61.0,59.9,30.06,SSW,202,3.5,3.5,96,0.00,CLR,SKC,0.00,WeatherDisplay:10.37,2013-01-30 03:39:00,
2013-01-29 22:44:00,60.0,59.1,30.06,SSW,202,4.0,4.0,97,0.00,CLR,SKC,0.00,WeatherDisplay:10.37,2013-01-30 03:44:00,
2013-01-29 22:49:00,60.0,59.1,30.06,South,180,5.8,5.8,97,0.00,CLR,SKC,0.00,WeatherDisplay:10.37,2013-01-30 03:49:00,
2013-01-29 22:54:00,60.0,59.4,30.06,SSW,202,4.0,4.0,98,0.00,CLR,SKC,0.00,WeatherDisplay:10.37,2013-01-30 03:54:00,
2013-01-29 22:59:00,60.0,59.4,30.07,South,180,3.5,3.5,98,0.00,CLR,SKC,0.00,WeatherDisplay:10.37,2013-01-30 03:59:00,
2013-01-29 23:04:00,60.0,59.7,30.07,SSW,202,4.0,4.0,99,0.00,CLR,SKC,0.00,WeatherDisplay:10.37,2013-01-30 04:04:00,
2013-01-29 23:09:00,60.0,59.7,30.07,SSW,202,4.6,4.6,99,0.00,CLR,SKC,0.00,WeatherDisplay:10.37,2013-01-30 04:09:00,
2013-01-29 23:14:00,60.0,60.0,30.07,South,180,4.0,4.0,100,0.00,CLR,SKC,0.00,WeatherDisplay:10.37,2013-01-30 04:14:00,
2013-01-29 23:19:00,60.0,59.7,30.07,SSW,202,3.5,3.5,99,0.00,CLR,SKC,0.00,WeatherDisplay:10.37,2013-01-30 04:19:00,
2013-01-29 23:24:00,60.0,60.0,30.07,South,180,6.9,6.9,100,0.00,CLR,SKC,0.00,WeatherDisplay:10.37,2013-01-30 04:24:00,
2013-01-29 23:29:00,60.0,60.0,30.06,SSW,202,5.8,5.8,100,0.00,CLR,SKC,0.00,WeatherDisplay:10.37,2013-01-30 04:29:00,
2013-01-29 23:34:00,60.0,60.0,30.06,SSE,157,9.2,9.2,100,0.00,CLR,SKC,0.00,WeatherDisplay:10.37,2013-01-30 04:34:00,
2013-01-29 23:39:00,60.0,60.0,30.04,South,180,5.8,5.8,100,0.00,CLR,SKC,0.00,WeatherDisplay:10.37,2013-01-30 04:39:00,
2013-01-29 23:44:00,60.0,60.0,30.04,South,180,6.9,6.9,100,0.00,CLR,SKC,0.00,WeatherDisplay:10.37,2013-01-30 04:44:00,
2013-01-29 23:49:00,60.0,60.0,30.04,South,180,7.0,7.0,100,0.00,CLR,SKC,0.00,WeatherDisplay:10.37,2013-01-30 04:49:00,
2013-01-29 23:54:00,60.0,60.0,30.04,SSW,202,11.5,11.5,100,0.00,CLR,SKC,0.00,WeatherDisplay:10.37,2013-01-30 04:54:00,
2013-01-29 23:59:00,60.0,60.0,30.03,South,180,8.1,8.1,100,0.00,CLR,SKC,0.00,WeatherDisplay:10.37,2013-01-30 04:59:00,